createdAt,value
2017-09-24T00:00:18.071Z,99.90
2017-09-24T00:02:45.622Z,99.90
2017-09-24T00:05:14.003Z,99.90
2017-09-24T00:07:41.511Z,99.90
2017-09-24T00:10:09.122Z,99.90
2017-09-24T00:12:36.635Z,99.90
2017-09-24T00:15:04.245Z,99.90
2017-09-24T00:17:31.807Z,99.90
2017-09-24T00:19:59.334Z,99.90
2017-09-24T00:22:27.702Z,99.90
2017-09-24T00:24:56.068Z,99.90
2017-09-24T00:27:24.423Z,99.90
2017-09-24T00:29:51.943Z,99.90
2017-09-24T00:32:20.224Z,99.90
2017-09-24T00:34:47.843Z,99.90
2017-09-24T00:37:15.346Z,99.90
2017-09-24T00:39:42.868Z,99.90
2017-09-24T00:42:11.280Z,99.90
2017-09-24T00:44:38.906Z,99.90
2017-09-24T00:47:06.415Z,99.90
2017-09-24T00:49:33.939Z,99.90
2017-09-24T00:52:02.230Z,99.90
2017-09-24T00:54:29.798Z,99.90
2017-09-24T00:56:57.318Z,99.90
2017-09-24T00:59:25.591Z,99.90
2017-09-24T01:01:53.183Z,99.90
2017-09-24T01:04:20.698Z,99.90
2017-09-24T01:06:48.223Z,99.90
2017-09-24T01:09:16.430Z,99.90
2017-09-24T01:11:43.948Z,99.90
2017-09-24T01:14:11.455Z,99.90
2017-09-24T01:16:38.985Z,99.90
2017-09-24T01:19:06.482Z,99.90
2017-09-24T01:21:34.729Z,99.90
2017-09-24T01:24:02.274Z,99.90
2017-09-24T01:26:29.782Z,99.90
2017-09-24T01:28:58.055Z,99.90
2017-09-24T01:31:26.359Z,99.90
2017-09-24T01:33:53.914Z,99.90
2017-09-24T01:36:21.443Z,99.90
2017-09-24T01:38:48.947Z,99.90
2017-09-24T01:41:16.474Z,99.90
2017-09-24T01:43:44.747Z,99.90
2017-09-24T01:46:13.896Z,99.90
2017-09-24T01:48:41.511Z,99.90
2017-09-24T01:51:09.785Z,99.90
2017-09-24T01:53:38.180Z,99.90
2017-09-24T01:56:05.691Z,99.90
2017-09-24T01:58:33.938Z,99.90
2017-09-24T02:01:01.464Z,99.90
2017-09-24T02:03:28.983Z,99.90
2017-09-24T02:05:57.231Z,99.90
2017-09-24T02:08:24.760Z,99.90
2017-09-24T02:10:52.315Z,99.90
2017-09-24T02:13:19.974Z,99.90
2017-09-24T02:15:47.658Z,99.90
2017-09-24T02:18:18.059Z,99.90
2017-09-24T02:20:45.623Z,99.90
2017-09-24T02:23:13.218Z,99.90
2017-09-24T02:25:40.727Z,99.90
2017-09-24T02:28:09.014Z,99.90
2017-09-24T02:30:36.518Z,99.90
2017-09-24T02:33:04.059Z,99.90
2017-09-24T02:35:31.595Z,99.90
2017-09-24T02:37:59.130Z,99.90
2017-09-24T02:40:27.419Z,99.90
2017-09-24T02:42:55.771Z,99.90
2017-09-24T02:45:23.372Z,99.90
2017-09-24T02:47:50.882Z,99.90
2017-09-24T02:50:18.543Z,99.90
2017-09-24T02:52:46.053Z,99.90
2017-09-24T02:55:14.432Z,99.90
2017-09-24T02:57:41.991Z,99.90
2017-09-24T03:00:09.535Z,99.90
2017-09-24T03:02:37.912Z,99.90
2017-09-24T03:05:06.390Z,99.90
2017-09-24T03:07:33.894Z,99.90
2017-09-24T03:10:01.414Z,99.90
2017-09-24T03:12:28.970Z,99.90
2017-09-24T03:14:56.498Z,99.90
2017-09-24T03:17:24.003Z,99.90
2017-09-24T03:19:51.527Z,99.90
2017-09-24T03:22:19.794Z,99.90
2017-09-24T03:24:48.083Z,99.90
2017-09-24T03:27:16.371Z,99.90
2017-09-24T03:29:43.899Z,99.90
2017-09-24T03:32:11.407Z,99.90
2017-09-24T03:34:38.925Z,99.90
2017-09-24T03:37:07.202Z,99.90
2017-09-24T03:39:35.504Z,99.90
2017-09-24T03:42:03.102Z,99.90
2017-09-24T03:44:30.607Z,99.90
2017-09-24T03:46:58.981Z,99.90
2017-09-24T03:49:27.251Z,99.90
2017-09-24T03:51:55.538Z,99.90
2017-09-24T03:54:23.043Z,99.90
2017-09-24T03:56:50.571Z,99.90
2017-09-24T03:59:18.094Z,99.90
2017-09-24T04:01:46.378Z,99.90
2017-09-24T04:04:15.483Z,99.90
2017-09-24T04:06:43.007Z,99.90
2017-09-24T04:09:10.511Z,99.90
2017-09-24T04:11:38.163Z,99.90
2017-09-24T04:14:05.667Z,99.90
2017-09-24T04:16:33.195Z,99.90
2017-09-24T04:19:00.704Z,99.90
2017-09-24T04:21:31.887Z,99.90
2017-09-24T04:23:59.394Z,99.90
2017-09-24T04:26:26.915Z,99.90
2017-09-24T04:28:55.379Z,99.90
2017-09-24T04:31:22.898Z,99.90
2017-09-24T04:33:50.402Z,99.90
2017-09-24T04:36:17.947Z,99.90
2017-09-24T04:38:46.215Z,99.90
2017-09-24T04:41:14.486Z,99.90
2017-09-24T04:43:42.779Z,99.90
2017-09-24T04:46:10.282Z,99.90
2017-09-24T04:48:38.017Z,99.90
2017-09-24T04:51:08.471Z,99.90
2017-09-24T04:53:35.994Z,99.90
2017-09-24T04:56:03.510Z,99.90
2017-09-24T04:58:31.034Z,99.90
2017-09-24T05:01:00.346Z,99.90
2017-09-24T05:03:27.872Z,99.90
2017-09-24T05:05:55.523Z,99.90
2017-09-24T05:08:23.038Z,99.90
2017-09-24T05:10:50.542Z,99.90
2017-09-24T05:13:19.090Z,99.90
2017-09-24T05:15:46.599Z,99.90
2017-09-24T05:18:14.127Z,99.90
2017-09-24T05:20:43.102Z,99.90
2017-09-24T05:23:11.394Z,99.90
2017-09-24T05:25:39.667Z,99.90
2017-09-24T05:28:08.058Z,99.90
2017-09-24T05:30:35.559Z,99.90
2017-09-24T05:33:03.180Z,99.90
2017-09-24T05:35:30.853Z,99.90
2017-09-24T05:37:58.382Z,99.90
2017-09-24T05:40:26.650Z,99.90
2017-09-24T05:42:54.951Z,99.90
2017-09-24T05:45:22.467Z,99.90
2017-09-24T05:47:49.970Z,99.90
2017-09-24T05:50:17.523Z,99.90
2017-09-24T05:52:45.118Z,99.90
2017-09-24T05:55:12.722Z,99.90
2017-09-24T05:57:40.999Z,99.90
2017-09-24T06:00:09.605Z,99.90
2017-09-24T06:02:37.165Z,99.90
2017-09-24T06:05:05.534Z,99.90
2017-09-24T06:07:33.802Z,99.90
2017-09-24T06:10:02.294Z,99.90
2017-09-24T06:12:29.799Z,99.90
2017-09-24T06:14:57.327Z,99.90
2017-09-24T06:17:24.831Z,99.90
2017-09-24T06:19:52.355Z,99.90
2017-09-24T06:22:19.859Z,99.90
2017-09-24T06:24:48.147Z,99.90
2017-09-24T06:27:16.518Z,99.90
2017-09-24T06:29:44.810Z,99.90
2017-09-24T06:32:12.318Z,99.90
2017-09-24T06:34:39.844Z,99.90
2017-09-24T06:37:07.546Z,99.90
2017-09-24T06:39:35.091Z,99.90
2017-09-24T06:42:02.594Z,99.90
2017-09-24T06:44:30.866Z,99.90
2017-09-24T06:46:59.154Z,99.90
2017-09-24T06:49:27.427Z,99.90
2017-09-24T06:51:55.827Z,99.90
2017-09-24T06:54:23.330Z,99.90
2017-09-24T06:56:50.855Z,99.90
2017-09-24T06:59:18.363Z,99.90
2017-09-24T07:01:46.667Z,99.90
2017-09-24T07:04:14.171Z,99.90
2017-09-24T07:06:41.700Z,99.90
2017-09-24T07:09:09.238Z,99.90
2017-09-24T07:11:36.759Z,99.90
2017-09-24T07:14:04.273Z,99.90
2017-09-24T07:16:31.799Z,99.90
2017-09-24T07:19:00.075Z,99.90
2017-09-24T07:21:28.371Z,99.90
2017-09-24T07:23:55.875Z,99.90
2017-09-24T07:26:23.487Z,99.90
2017-09-24T07:28:50.994Z,99.90
2017-09-24T07:31:18.503Z,99.90
2017-09-24T07:33:46.027Z,99.90
2017-09-24T07:36:13.539Z,99.90
2017-09-24T07:38:41.062Z,99.90
2017-09-24T07:41:09.330Z,99.90
2017-09-24T07:43:37.623Z,99.90
2017-09-24T07:46:05.130Z,99.90
2017-09-24T07:48:32.655Z,99.90
2017-09-24T07:51:00.158Z,99.90
2017-09-24T07:53:27.758Z,99.90
2017-09-24T07:55:55.258Z,99.90
2017-09-24T07:58:22.783Z,99.90
2017-09-24T08:00:50.287Z,99.90
2017-09-24T08:03:17.895Z,99.90
2017-09-24T08:05:45.398Z,99.90
2017-09-24T08:08:12.919Z,99.90
2017-09-24T08:10:40.818Z,99.90
2017-09-24T08:13:08.343Z,99.90
2017-09-24T08:15:35.849Z,99.90
2017-09-24T08:18:03.451Z,99.90
2017-09-24T08:20:30.961Z,99.90
2017-09-24T08:22:58.504Z,99.90
2017-09-24T08:25:26.006Z,99.90
2017-09-24T08:27:54.302Z,99.90
2017-09-24T08:30:21.822Z,99.90
2017-09-24T08:32:49.419Z,99.90
2017-09-24T08:35:17.534Z,99.90
2017-09-24T08:37:45.050Z,99.90
2017-09-24T08:40:12.612Z,99.80
2017-09-24T08:42:40.119Z,99.90
2017-09-24T08:45:07.642Z,99.90
2017-09-24T08:47:35.149Z,99.60
2017-09-24T08:50:02.743Z,99.70
2017-09-24T08:52:30.250Z,99.50
2017-09-24T08:54:57.772Z,99.20
2017-09-24T08:57:25.370Z,98.20
2017-09-24T08:59:52.895Z,98.50
2017-09-24T09:02:20.403Z,98.50
2017-09-24T09:04:47.975Z,98.60
2017-09-24T09:07:16.246Z,98.20
2017-09-24T09:09:44.534Z,97.90
2017-09-24T09:12:12.822Z,97.80
2017-09-24T09:14:40.346Z,97.80
2017-09-24T09:17:07.852Z,97.80
2017-09-24T09:19:35.378Z,98.00
2017-09-24T09:22:03.670Z,96.80
2017-09-24T09:24:31.803Z,96.80
2017-09-24T09:26:59.324Z,97.00
2017-09-24T09:29:26.856Z,96.50
2017-09-24T09:31:54.359Z,96.40
2017-09-24T09:34:32.706Z,96.40
2017-09-24T09:37:00.970Z,97.50
2017-09-24T09:39:29.335Z,97.50
2017-09-24T09:41:56.957Z,97.20
2017-09-24T09:44:50.326Z,97.10
2017-09-24T09:47:25.752Z,97.20
2017-09-24T09:49:53.284Z,96.70
2017-09-24T09:52:21.590Z,96.50
2017-09-24T09:54:49.111Z,96.50
2017-09-24T09:57:16.619Z,96.60
2017-09-24T09:59:44.159Z,96.30
2017-09-24T10:02:11.775Z,95.10
2017-09-24T10:04:39.282Z,95.80
2017-09-24T10:07:18.614Z,95.00
2017-09-24T10:09:57.991Z,95.20
2017-09-24T10:12:25.511Z,94.10
2017-09-24T10:14:53.022Z,94.70
2017-09-24T10:17:21.266Z,93.60
2017-09-24T10:19:48.771Z,93.80
2017-09-24T10:22:17.063Z,93.00
2017-09-24T10:24:45.331Z,92.10
2017-09-24T10:27:14.239Z,91.20
2017-09-24T10:43:01.864Z,86.90
2017-09-24T10:45:29.377Z,86.70
2017-09-24T10:47:56.899Z,89.90
2017-09-24T10:50:24.402Z,88.50
2017-09-24T10:52:52.702Z,89.50
2017-09-24T10:55:20.302Z,89.50
2017-09-24T10:57:48.547Z,88.60
2017-09-24T11:00:16.054Z,86.20
2017-09-24T11:02:44.419Z,88.40
2017-09-24T11:05:11.921Z,90.10
2017-09-24T11:07:40.207Z,87.50
2017-09-24T11:10:07.706Z,87.40
2017-09-24T11:12:35.954Z,88.60
2017-09-24T11:15:03.467Z,85.90
2017-09-24T11:17:30.975Z,87.70
2017-09-24T11:19:58.499Z,88.60
2017-09-24T11:22:26.770Z,89.50
2017-09-24T11:24:55.063Z,88.40
2017-09-24T11:27:22.569Z,88.40
2017-09-24T11:29:50.092Z,89.00
2017-09-24T11:32:17.638Z,85.60
2017-09-24T11:34:45.159Z,86.50
2017-09-24T11:37:13.507Z,84.20
2017-09-24T11:39:41.030Z,87.10
2017-09-24T11:42:08.535Z,84.20
2017-09-24T11:44:36.153Z,84.10
2017-09-24T11:47:03.659Z,82.30
2017-09-24T11:49:31.189Z,85.00
2017-09-24T11:51:58.703Z,86.10
2017-09-24T11:54:26.975Z,86.40
2017-09-24T11:56:55.264Z,81.00
2017-09-24T11:59:23.535Z,80.30
2017-09-24T12:01:51.856Z,84.40
2017-09-24T12:04:19.351Z,84.40
2017-09-24T12:06:46.946Z,81.40
2017-09-24T12:09:14.452Z,84.50
2017-09-24T12:11:41.975Z,86.00
2017-09-24T12:14:09.514Z,84.20
2017-09-24T12:16:37.551Z,82.40
2017-09-24T12:19:05.155Z,78.50
2017-09-24T12:21:32.746Z,83.30
2017-09-24T12:24:00.249Z,82.70
2017-09-24T12:26:29.382Z,79.90
2017-09-24T12:28:56.932Z,79.90
2017-09-24T12:31:24.450Z,81.40
2017-09-24T12:33:51.955Z,79.40
2017-09-24T12:36:20.201Z,78.90
2017-09-24T12:38:48.478Z,82.60
2017-09-24T12:41:16.766Z,81.70
2017-09-24T12:43:44.340Z,81.70
2017-09-24T12:46:11.986Z,80.80
2017-09-24T12:48:39.494Z,83.60
2017-09-24T12:51:07.020Z,80.30
2017-09-24T12:53:34.530Z,75.90
2017-09-24T12:56:02.119Z,79.70
2017-09-24T12:58:30.242Z,80.50
2017-09-24T13:00:57.867Z,81.60
2017-09-24T13:03:25.366Z,85.60
2017-09-24T13:05:52.898Z,85.30
2017-09-24T13:08:20.403Z,87.50
2017-09-24T13:10:48.706Z,85.00
2017-09-24T13:13:16.258Z,84.80
2017-09-24T13:15:43.763Z,87.40
2017-09-24T13:18:11.287Z,86.70
2017-09-24T13:20:38.939Z,87.00
2017-09-24T13:23:06.459Z,89.80
2017-09-24T13:25:33.968Z,89.30
2017-09-24T13:28:01.527Z,87.20
2017-09-24T13:30:29.034Z,87.80
2017-09-24T13:32:56.627Z,87.00
2017-09-24T13:35:24.127Z,85.90
2017-09-24T13:37:51.647Z,86.40
2017-09-24T13:40:19.153Z,86.10
2017-09-24T13:42:46.678Z,85.70
2017-09-24T13:45:14.223Z,86.00
2017-09-24T13:47:41.742Z,85.40
2017-09-24T13:50:09.953Z,86.60
2017-09-24T13:52:37.479Z,85.70
2017-09-24T13:55:04.990Z,85.90
2017-09-24T13:57:32.515Z,85.40
2017-09-24T14:00:00.787Z,85.10
2017-09-24T14:02:29.083Z,83.10
2017-09-24T14:04:56.591Z,83.00
2017-09-24T14:07:24.099Z,82.70
2017-09-24T14:09:51.654Z,83.70
2017-09-24T14:12:19.163Z,84.90
2017-09-24T14:14:48.166Z,81.40
2017-09-24T14:17:15.666Z,81.30
2017-09-24T14:19:43.194Z,83.30
2017-09-24T14:22:11.470Z,82.20
2017-09-24T14:24:39.766Z,84.80
2017-09-24T14:27:07.267Z,84.80
2017-09-24T14:29:34.791Z,85.80
2017-09-24T14:32:02.300Z,86.50
2017-09-24T14:34:30.551Z,87.20
2017-09-24T14:36:58.058Z,85.80
2017-09-24T14:39:26.342Z,83.60
2017-09-24T14:41:54.615Z,85.40
2017-09-24T14:44:22.902Z,83.00
2017-09-24T14:46:50.404Z,83.00
2017-09-24T14:49:19.026Z,82.00
2017-09-24T14:51:47.298Z,81.90
2017-09-24T14:54:15.874Z,81.80
2017-09-24T14:56:43.468Z,81.80
2017-09-24T14:59:11.022Z,80.70
2017-09-24T15:01:38.543Z,82.30
2017-09-24T15:04:06.063Z,82.50
2017-09-24T15:06:33.760Z,85.80
2017-09-24T15:09:01.272Z,81.50
2017-09-24T15:11:28.795Z,81.40
2017-09-24T15:13:57.062Z,79.80
2017-09-24T15:16:24.588Z,79.70
2017-09-24T15:18:52.099Z,80.10
2017-09-24T15:21:20.390Z,81.40
2017-09-24T15:23:47.899Z,81.40
2017-09-24T15:26:15.422Z,82.00
2017-09-24T15:28:42.965Z,81.60
2017-09-24T15:31:10.491Z,82.20
2017-09-24T15:33:38.767Z,84.00
2017-09-24T15:36:07.059Z,86.50
2017-09-24T15:38:34.748Z,85.60
2017-09-24T15:41:02.274Z,85.40
2017-09-24T15:43:30.551Z,82.80
2017-09-24T15:45:58.842Z,81.20
2017-09-24T15:48:26.399Z,81.20
2017-09-24T15:50:53.954Z,78.70
2017-09-24T15:53:21.459Z,77.00
2017-09-24T15:55:48.967Z,77.30
2017-09-24T15:58:17.368Z,78.40
2017-09-24T16:00:44.882Z,78.40
2017-09-24T16:03:13.915Z,81.70
2017-09-24T16:05:41.423Z,81.70
2017-09-24T16:08:09.027Z,82.00
2017-09-24T16:10:36.587Z,83.60
2017-09-24T16:13:04.107Z,82.60
2017-09-24T16:15:31.618Z,83.80
2017-09-24T16:17:59.139Z,84.40
2017-09-24T16:20:27.408Z,83.30
2017-09-24T16:22:55.706Z,84.00
2017-09-24T16:25:23.215Z,83.80
2017-09-24T16:27:50.739Z,86.70
2017-09-24T16:30:18.239Z,88.90
2017-09-24T16:32:45.767Z,90.10
2017-09-24T16:35:13.271Z,90.90
2017-09-24T16:37:41.568Z,92.70
2017-09-24T16:40:09.135Z,92.70
2017-09-24T16:42:36.643Z,92.90
2017-09-24T16:45:04.166Z,93.70
2017-09-24T16:47:31.679Z,94.90
2017-09-24T16:49:59.207Z,95.50
2017-09-24T16:52:26.714Z,95.50
2017-09-24T16:54:55.003Z,95.40
2017-09-24T16:57:22.514Z,95.40
2017-09-24T16:59:50.042Z,96.50
2017-09-24T17:02:17.540Z,98.20
2017-09-24T17:04:45.070Z,97.80
2017-09-24T17:07:12.583Z,98.70
2017-09-24T17:09:40.106Z,98.90
2017-09-24T17:12:07.617Z,99.40
2017-09-24T17:14:35.167Z,98.90
2017-09-24T17:17:03.574Z,99.30
2017-09-24T17:19:31.094Z,99.10
2017-09-24T17:21:59.367Z,99.20
2017-09-24T17:24:27.663Z,99.80
2017-09-24T17:26:55.215Z,99.80
2017-09-24T17:29:22.730Z,99.80
2017-09-24T17:31:50.255Z,99.80
2017-09-24T17:34:17.758Z,99.60
2017-09-24T17:36:46.051Z,99.90
2017-09-24T17:39:14.317Z,99.20
2017-09-24T17:41:42.607Z,99.70
2017-09-24T17:44:10.878Z,99.90
2017-09-24T17:46:38.402Z,99.90
2017-09-24T17:49:05.910Z,99.20
2017-09-24T17:51:33.430Z,98.90
2017-09-24T17:54:00.938Z,99.30
2017-09-24T17:56:28.462Z,99.70
2017-09-24T17:58:56.735Z,99.70
2017-09-24T18:01:25.023Z,99.90
2017-09-24T18:03:53.303Z,99.70
2017-09-24T18:06:20.822Z,99.60
2017-09-24T18:08:48.441Z,95.60
2017-09-24T18:11:15.969Z,95.60
2017-09-24T18:13:44.291Z,97.10
2017-09-24T18:16:11.817Z,97.40
2017-09-24T18:18:39.324Z,97.10
2017-09-24T18:21:06.852Z,95.80
2017-09-24T18:23:34.705Z,97.00
2017-09-24T18:26:02.232Z,96.80
2017-09-24T18:28:30.507Z,96.90
2017-09-24T18:30:58.026Z,96.80
2017-09-24T18:33:25.530Z,96.70
2017-09-24T18:35:53.824Z,96.50
2017-09-24T18:38:21.335Z,96.50
2017-09-24T18:40:48.842Z,96.50
2017-09-24T18:43:16.367Z,97.20
2017-09-24T18:45:43.967Z,97.70
2017-09-24T18:48:11.494Z,97.90
2017-09-24T18:50:39.766Z,98.40
2017-09-24T18:53:08.070Z,98.70
2017-09-24T18:55:35.581Z,98.50
2017-09-24T18:58:03.101Z,98.50
2017-09-24T19:00:30.603Z,98.70
2017-09-24T19:02:58.227Z,98.90
2017-09-24T19:05:25.722Z,99.00
2017-09-24T19:07:53.320Z,99.20
2017-09-24T19:10:20.822Z,99.50
2017-09-24T19:12:49.202Z,99.70
2017-09-24T19:15:16.702Z,99.80
2017-09-24T19:17:44.986Z,99.90
2017-09-24T19:20:13.198Z,99.90
2017-09-24T19:22:40.715Z,99.90
2017-09-24T19:25:08.975Z,99.90
2017-09-24T19:27:37.254Z,99.90
2017-09-24T19:30:06.442Z,99.90
2017-09-24T19:32:34.050Z,99.90
2017-09-24T19:35:01.555Z,99.90
2017-09-24T19:37:30.687Z,99.90
2017-09-24T19:39:58.245Z,99.90
2017-09-24T19:42:25.767Z,99.90
2017-09-24T19:44:53.268Z,99.90
2017-09-24T19:47:20.803Z,99.90
2017-09-24T19:49:49.075Z,99.90
2017-09-24T19:52:17.630Z,99.90
2017-09-24T19:54:45.239Z,99.90
2017-09-24T19:57:12.799Z,99.90
2017-09-24T19:59:40.320Z,99.90
2017-09-24T20:02:07.830Z,99.90
2017-09-24T20:04:36.226Z,99.90
2017-09-24T20:07:03.746Z,99.90
2017-09-24T20:09:31.267Z,99.90
2017-09-24T20:11:58.779Z,99.90
2017-09-24T20:14:26.302Z,99.90
2017-09-24T20:16:54.599Z,99.90
2017-09-24T20:19:22.123Z,99.90
2017-09-24T20:21:51.143Z,99.90
2017-09-24T20:24:19.551Z,99.90
2017-09-24T20:26:47.053Z,99.90
2017-09-24T20:29:14.575Z,99.90
2017-09-24T20:31:42.078Z,99.90
2017-09-24T20:34:10.369Z,99.90
2017-09-24T20:36:37.878Z,99.90
2017-09-24T20:39:05.491Z,99.90
2017-09-24T20:41:33.107Z,99.90
2017-09-24T20:44:01.435Z,99.90
2017-09-24T20:46:28.962Z,99.90
2017-09-24T20:48:56.551Z,99.90
2017-09-24T20:51:24.078Z,99.90
2017-09-24T20:53:51.590Z,99.90
2017-09-24T20:56:19.111Z,99.90
2017-09-24T20:58:47.382Z,99.90
2017-09-24T21:01:15.859Z,99.90
2017-09-24T21:03:44.322Z,99.90
2017-09-24T21:06:11.843Z,99.90
2017-09-24T21:08:39.351Z,99.90
2017-09-24T21:11:06.876Z,99.90
2017-09-24T21:13:34.379Z,99.90
2017-09-24T21:16:02.850Z,99.90
2017-09-24T21:18:31.462Z,99.90
2017-09-24T21:20:58.993Z,99.90
2017-09-24T21:23:27.266Z,99.90
2017-09-24T21:25:55.558Z,99.90
2017-09-24T21:28:23.826Z,99.90
2017-09-24T21:30:52.130Z,99.90
2017-09-24T21:33:19.635Z,99.90
2017-09-24T21:35:48.675Z,99.90
2017-09-24T21:38:16.191Z,99.90
2017-09-24T21:40:43.702Z,99.90
2017-09-24T21:43:11.226Z,99.90
2017-09-24T21:45:39.494Z,99.90
2017-09-24T21:48:07.016Z,99.90
2017-09-24T21:50:34.521Z,99.90
2017-09-24T21:53:02.814Z,99.90
2017-09-24T21:55:30.356Z,99.90
2017-09-24T21:57:58.743Z,99.90
2017-09-24T22:00:27.010Z,99.90
2017-09-24T22:02:55.403Z,99.90
2017-09-24T22:05:23.638Z,99.90
2017-09-24T22:07:51.159Z,99.90
2017-09-24T22:10:18.699Z,99.90
2017-09-24T22:12:47.220Z,99.90
2017-09-24T22:15:14.735Z,99.90
2017-09-24T22:17:42.518Z,99.90
2017-09-24T22:20:10.019Z,99.90
2017-09-24T22:22:37.554Z,99.90
2017-09-24T22:25:05.076Z,99.90
2017-09-24T22:27:32.595Z,99.90
2017-09-24T22:30:00.106Z,99.90
2017-09-24T22:32:27.646Z,99.90
2017-09-24T22:34:55.159Z,99.90
2017-09-24T22:37:22.691Z,99.90
2017-09-24T22:39:50.222Z,99.90
2017-09-24T22:42:17.788Z,99.90
2017-09-24T22:44:45.344Z,99.90
2017-09-24T22:47:12.913Z,99.90
2017-09-24T22:49:40.415Z,99.90
2017-09-24T22:52:07.991Z,99.90
2017-09-24T22:54:36.389Z,99.90
2017-09-24T22:57:05.506Z,99.90
2017-09-24T22:59:33.052Z,99.90
2017-09-24T23:02:00.706Z,99.90
2017-09-24T23:04:28.270Z,99.90
2017-09-24T23:06:55.830Z,99.90
2017-09-24T23:09:23.359Z,99.90
2017-09-24T23:11:50.867Z,99.90
2017-09-24T23:16:52.194Z,99.90
2017-09-24T23:19:20.483Z,99.90
2017-09-24T23:21:48.059Z,99.90
2017-09-24T23:24:15.578Z,99.90
2017-09-24T23:26:43.854Z,99.90
2017-09-24T23:29:12.155Z,99.90
2017-09-24T23:31:39.667Z,99.90
2017-09-24T23:34:08.807Z,99.90
2017-09-24T23:36:36.314Z,99.90
2017-09-24T23:39:03.875Z,99.90
2017-09-24T23:41:31.402Z,99.90
2017-09-24T23:43:59.039Z,99.90
2017-09-24T23:46:26.631Z,99.90
2017-09-24T23:48:54.135Z,99.90
2017-09-24T23:51:21.654Z,99.90
2017-09-24T23:53:49.155Z,99.90
2017-09-24T23:56:17.442Z,99.90
2017-09-24T23:58:45.706Z,99.90
